Time;durP1;ratioP1;P1;durP2;ratioP2;P2;SDS_P1;SDS_P2;PMS_P1;PMS_P2;Temp;Humidity;BMP_temperature;BMP_pressure;BME280_temperature;BME280_humidity;BME280_pressure;Samples;Min_cycle;Max_cycle;Signal;HPM_P1;HPM_P2
2022/04/11 00:03:25;;;;;;;2.58;1.58;;;;;;;1.65;67.01;96167.84;10429998;27;96839;-69
2022/04/11 00:08:28;;;;;;;2.67;1.40;;;;;;;1.63;67.61;96166.28;10422502;27;96920;-69
2022/04/11 00:13:32;;;;;;;2.65;1.27;;;;;;;1.80;66.65;96157.50;10425959;27;96868;-69
2022/04/11 00:18:35;;;;;;;1.80;1.13;;;;;;;1.84;66.79;96157.22;10420925;27;97460;-69
2022/04/11 00:23:38;;;;;;;2.58;1.35;;;;;;;1.71;67.09;96141.72;10418666;27;100236;-69
2022/04/11 00:28:42;;;;;;;4.25;1.25;;;;;;;1.74;66.29;96140.69;10438557;27;96959;-69
2022/04/11 00:33:45;;;;;;;1.40;1.00;;;;;;;1.76;65.95;96143.97;10420600;27;96841;-69
2022/04/11 00:38:48;;;;;;;1.63;1.15;;;;;;;1.79;66.42;96128.34;10442708;27;96869;-69
2022/04/11 00:43:53;;;;;;;1.83;0.88;;;;;;;1.79;67.09;96136.06;10425325;27;96865;-69
2022/04/11 00:48:55;;;;;;;0.80;0.68;;;;;;;1.76;66.30;96128.53;10423892;27;97279;-69
2022/04/11 00:54:00;;;;;;;0.95;0.68;;;;;;;1.70;66.15;96124.59;10426120;27;97126;-69
2022/04/11 00:59:04;;;;;;;0.70;0.60;;;;;;;1.59;67.84;96131.34;10430271;27;96793;-69
2022/04/11 01:04:22;;;;;;;0.60;0.50;;;;;;;1.42;68.24;96129.78;10427917;27;97158;-68
2022/04/11 01:09:27;;;;;;;1.52;1.15;;;;;;;1.36;68.25;96125.84;10430561;27;98194;-69
2022/04/11 01:14:31;;;;;;;2.78;1.65;;;;;;;1.31;68.47;96120.16;10443847;27;96947;-68
2022/04/11 01:19:34;;;;;;;2.38;1.35;;;;;;;1.28;68.53;96117.78;10422398;27;97293;-69
2022/04/11 01:24:39;;;;;;;2.92;1.30;;;;;;;1.18;68.55;96113.19;10421272;27;96830;-69
2022/04/11 01:29:42;;;;;;;0.88;0.70;;;;;;;1.14;68.58;96114.31;10420481;27;96977;-69
2022/04/11 01:34:45;;;;;;;2.63;0.73;;;;;;;1.09;68.36;96118.91;10420895;27;96771;-69
2022/04/11 01:39:49;;;;;;;1.30;0.70;;;;;;;1.03;68.31;96118.44;10421055;27;100520;-69
2022/04/11 01:44:52;;;;;;;0.60;0.60;;;;;;;0.93;68.45;96113.84;10418815;27;96950;-69
2022/04/11 01:49:55;;;;;;;2.05;0.90;;;;;;;0.89;68.02;96116.69;10443856;27;97268;-69
2022/04/11 01:54:59;;;;;;;0.77;0.70;;;;;;;0.86;68.66;96116.88;10433945;27;96885;-69
2022/04/11 02:00:18;;;;;;;1.95;1.00;;;;;;;0.83;68.38;96119.63;10451163;27;96993;-69
2022/04/11 02:05:22;;;;;;;1.73;0.95;;;;;;;0.74;68.55;96119.28;10439032;27;97150;-69
2022/04/11 02:10:26;;;;;;;2.17;1.00;;;;;;;0.58;69.44;96110.78;10416667;27;96829;-69
2022/04/11 02:15:29;;;;;;;0.67;0.57;;;;;;;0.48;69.35;96102.81;10435738;27;97096;-69
2022/04/11 02:20:32;;;;;;;0.93;0.63;;;;;;;0.33;69.85;96109.63;10423424;27;97777;-69
2022/04/11 02:25:40;;;;;;;1.50;0.85;;;;;;;0.33;69.67;96109.63;10417450;27;97811;-69
2022/04/11 02:30:42;;;;;;;1.58;0.68;;;;;;;0.35;69.82;96107.81;10427510;27;96830;-69
2022/04/11 02:35:45;;;;;;;1.00;0.75;;;;;;;0.32;70.01;96107.16;10436795;27;96881;-69
2022/04/11 02:40:49;;;;;;;0.95;0.65;;;;;;;0.10;70.63;96107.53;10424508;27;96980;-69
2022/04/11 02:45:52;;;;;;;2.10;0.95;;;;;;;0.05;70.07;96100.94;10421423;27;97017;-69
2022/04/11 02:50:55;;;;;;;0.90;0.57;;;;;;;0.11;70.20;96098.94;10419287;27;97048;-69
2022/04/11 02:56:00;;;;;;;1.00;0.75;;;;;;;-0.01;70.64;96101.31;10418948;27;96772;-69
2022/04/11 03:01:03;;;;;;;1.02;0.80;;;;;;;-0.15;71.31;96102.06;10421928;27;96730;-69
2022/04/11 03:06:06;;;;;;;0.50;0.50;;;;;;;-0.17;70.32;96092.78;10430787;27;96790;-69
2022/04/11 03:11:10;;;;;;;1.83;0.88;;;;;;;-0.21;70.44;96104.16;10451174;27;96856;-69
2022/04/11 03:16:13;;;;;;;2.42;0.80;;;;;;;-0.29;69.82;96102.00;10426766;27;96888;-69
2022/04/11 03:21:16;;;;;;;1.85;0.80;;;;;;;-0.30;69.62;96104.63;10427571;27;96941;-69
2022/04/11 03:26:20;;;;;;;1.02;0.77;;;;;;;-0.42;70.36;96101.84;10425596;27;96964;-69
2022/04/11 03:31:23;;;;;;;1.35;0.90;;;;;;;-0.46;70.96;96099.53;10416746;28;96792;-69
2022/04/11 03:36:26;;;;;;;1.70;1.00;;;;;;;-0.61;71.38;96104.59;10419424;27;96809;-69
2022/04/11 03:41:30;;;;;;;2.05;0.85;;;;;;;-0.47;70.48;96101.28;10420646;27;96939;-68
2022/04/11 03:46:33;;;;;;;2.67;1.30;;;;;;;-0.61;71.22;96111.47;10416236;28;98005;-69
2022/04/11 03:51:36;;;;;;;2.33;1.70;;;;;;;-0.67;71.25;96109.22;10415232;28;96864;-68
2022/04/11 03:56:40;;;;;;;1.10;1.00;;;;;;;-0.66;71.54;96105.75;10423381;27;96754;-69
2022/04/11 04:01:43;;;;;;;1.67;1.08;;;;;;;-0.57;70.42;96107.81;10427069;27;97095;-68
2022/04/11 04:06:46;;;;;;;1.73;0.90;;;;;;;-0.56;70.55;96107.72;10439450;27;96781;-68
2022/04/11 04:11:50;;;;;;;1.95;0.98;;;;;;;-0.75;71.38;96095.06;10420287;27;96966;-69
2022/04/11 04:16:53;;;;;;;2.13;1.05;;;;;;;-0.88;71.69;96104.31;10440546;27;100497;-68
2022/04/11 04:21:56;;;;;;;1.15;1.05;;;;;;;-0.81;72.17;96097.13;10454065;27;97847;-68
2022/04/11 04:27:01;;;;;;;1.83;1.30;;;;;;;-0.84;71.79;96089.59;10435689;27;96837;-68
2022/04/11 04:32:05;;;;;;;2.80;1.20;;;;;;;-0.86;71.71;96094.78;10437205;27;96723;-68
2022/04/11 04:37:08;;;;;;;1.15;0.70;;;;;;;-0.84;71.76;96089.59;10428112;27;97951;-68
2022/04/11 04:42:13;;;;;;;2.53;0.90;;;;;;;-0.83;72.15;96081.81;10432077;27;96922;-68
2022/04/11 04:47:16;;;;;;;1.27;1.00;;;;;;;-0.68;72.36;96082.75;10422105;27;96920;-68
2022/04/11 04:52:19;;;;;;;1.35;1.00;;;;;;;-0.72;71.37;96079.50;10440922;27;97306;-68
2022/04/11 04:57:23;;;;;;;1.35;1.10;;;;;;;-0.80;72.04;96076.53;10419410;27;97613;-68
2022/04/11 05:02:26;;;;;;;1.98;1.10;;;;;;;-0.86;72.34;96081.97;10416900;27;96732;-68
2022/04/11 05:07:29;;;;;;;2.10;1.17;;;;;;;-0.92;72.38;96072.88;10439961;27;97134;-68
2022/04/11 05:12:40;;;;;;;2.30;1.38;;;;;;;-0.94;72.63;96079.00;10443186;27;98189;-68
2022/04/11 05:17:43;;;;;;;1.65;1.30;;;;;;;-0.95;72.90;96087.59;10446901;27;98240;-68
2022/04/11 05:22:46;;;;;;;1.40;1.02;;;;;;;-0.90;72.57;96088.19;10429340;27;96784;-68
2022/04/11 05:27:51;;;;;;;2.47;1.30;;;;;;;-0.80;71.81;96080.84;10418909;27;96935;-69
2022/04/11 05:32:54;;;;;;;;;;;;;;;-0.77;71.94;96091.75;10415605;27;97935;-68
2022/04/11 05:37:58;;;;;;;1.48;1.02;;;;;;;-0.75;71.76;96081.41;10475522;27;98020;-68
2022/04/11 05:43:02;;;;;;;2.08;1.05;;;;;;;-0.64;71.55;96079.09;10451597;27;96795;-69
2022/04/11 05:48:05;;;;;;;2.78;1.20;;;;;;;-0.52;71.28;96080.16;10419321;27;96691;-68
2022/04/11 05:53:08;;;;;;;1.33;1.10;;;;;;;-0.47;71.35;96078.19;10417374;27;97109;-69
2022/04/11 05:58:12;;;;;;;1.25;0.95;;;;;;;-0.39;70.66;96070.88;10430983;27;97154;-69
2022/04/11 06:03:15;;;;;;;2.13;1.00;;;;;;;-0.23;70.63;96077.72;10442447;27;97015;-69
2022/04/11 06:08:18;;;;;;;2.38;1.40;;;;;;;-0.05;70.41;96088.72;10434147;27;97556;-69
2022/04/11 06:13:23;;;;;;;3.00;1.58;;;;;;;0.13;69.88;96089.41;10422444;27;96889;-69
2022/04/11 06:18:25;;;;;;;2.60;1.45;;;;;;;0.28;69.33;96088.53;10441884;27;96757;-69
2022/04/11 06:23:28;;;;;;;3.30;1.40;;;;;;;0.64;69.55;96092.44;10440705;27;96976;-69
2022/04/11 06:28:33;;;;;;;2.45;1.27;;;;;;;0.88;68.40;96089.31;10417176;27;97024;-69
2022/04/11 06:33:36;;;;;;;2.47;1.40;;;;;;;1.21;68.55;96091.59;10426507;27;100986;-69
2022/04/11 06:38:39;;;;;;;3.58;1.60;;;;;;;1.43;68.28;96085.13;10423679;27;96850;-69
2022/04/11 06:43:43;;;;;;;2.70;1.60;;;;;;;1.60;67.85;96086.66;10454111;27;98337;-69
2022/04/11 06:48:46;;;;;;;3.15;1.70;;;;;;;1.79;67.48;96092.28;10435291;27;96812;-69
2022/04/11 06:53:50;;;;;;;4.03;2.80;;;;;;;2.00;68.58;96089.25;10425929;27;96915;-69
2022/04/11 06:58:54;;;;;;;4.78;2.67;;;;;;;2.27;67.71;96090.06;10430667;27;97252;-69
2022/04/11 07:03:57;;;;;;;3.60;2.50;;;;;;;2.47;67.25;96093.06;10429965;27;96937;-69
2022/04/11 07:09:00;;;;;;;2.47;2.25;;;;;;;2.76;67.38;96083.38;10425636;27;96868;-69
2022/04/11 07:14:05;;;;;;;3.60;2.33;;;;;;;3.01;66.99;96082.53;10440374;27;96722;-69
2022/04/11 07:19:08;;;;;;;2.70;2.10;;;;;;;3.23;65.62;96087.03;10426817;27;97087;-69
2022/04/11 07:24:10;;;;;;;4.55;2.35;;;;;;;3.50;65.88;96082.63;10446261;27;99776;-69
2022/04/11 07:29:15;;;;;;;4.00;2.58;;;;;;;3.75;65.56;96087.72;10432367;27;96832;-69
2022/04/11 07:34:18;;;;;;;5.33;2.53;;;;;;;3.99;65.38;96079.16;10437256;27;97819;-69
2022/04/11 07:39:23;;;;;;;5.28;2.13;;;;;;;4.19;65.40;96082.84;10435885;27;96838;-69
2022/04/11 07:44:27;;;;;;;2.88;2.00;;;;;;;4.44;65.06;96084.47;10428684;27;96703;-70
2022/04/11 07:49:30;;;;;;;3.70;1.95;;;;;;;4.61;64.66;96087.56;10440176;27;96810;-70
2022/04/11 07:54:34;;;;;;;3.33;2.08;;;;;;;4.88;63.77;96093.25;10439118;27;97798;-69
2022/04/11 07:59:38;;;;;;;3.75;1.88;;;;;;;5.11;63.49;96085.50;10430104;27;96941;-70
2022/04/11 08:04:41;;;;;;;3.10;1.83;;;;;;;5.10;63.12;96089.84;10437772;27;96840;-70
2022/04/11 08:09:44;;;;;;;3.90;1.70;;;;;;;5.19;63.22;96080.56;10437249;27;98573;-69
2022/04/11 08:14:48;;;;;;;3.38;1.70;;;;;;;5.30;63.36;96077.94;10428010;27;96852;-70
2022/04/11 08:19:51;;;;;;;3.15;1.90;;;;;;;5.63;63.03;96073.66;10436611;27;96888;-70
2022/04/11 08:24:54;;;;;;;3.58;2.17;;;;;;;5.94;62.16;96071.22;10436547;27;97128;-70
2022/04/11 08:29:58;;;;;;;4.10;2.30;;;;;;;6.08;61.84;96067.50;10428964;27;97484;-70
2022/04/11 08:35:01;;;;;;;3.80;2.05;;;;;;;6.34;61.72;96062.78;10435108;27;96739;-70
2022/04/11 08:40:06;;;;;;;3.28;2.08;;;;;;;6.68;60.76;96069.56;10437657;27;97078;-70
2022/04/11 08:45:13;;;;;;;3.43;2.00;;;;;;;6.95;60.05;96061.22;10431689;27;96809;-70
2022/04/11 08:50:18;;;;;;;2.20;1.60;;;;;;;7.10;59.04;96059.97;10428623;27;96895;-70
2022/04/11 08:55:21;;;;;;;2.10;1.80;;;;;;;7.39;58.85;96048.88;10434825;27;96823;-70
2022/04/11 09:00:27;;;;;;;3.38;1.85;;;;;;;7.70;57.91;96051.38;10454710;27;96903;-70
2022/04/11 09:05:31;;;;;;;3.47;2.05;;;;;;;7.97;57.64;96048.94;10423102;27;99762;-70
2022/04/11 09:10:37;;;;;;;3.40;1.98;;;;;;;8.13;57.28;96037.16;10435752;27;99559;-70
2022/04/11 09:15:45;;;;;;;4.45;2.15;;;;;;;8.34;57.09;96045.66;10436759;27;96906;-70
2022/04/11 09:20:52;;;;;;;4.60;2.30;;;;;;;8.48;56.42;96048.78;10426233;27;96958;-70
2022/04/11 09:25:55;;;;;;;5.20;2.13;;;;;;;8.71;55.78;96047.50;10442187;27;97184;-70
2022/04/11 09:31:07;;;;;;;4.88;2.30;;;;;;;8.98;55.51;96048.53;10435542;27;97984;-70
2022/04/11 09:36:09;;;;;;;2.80;2.13;;;;;;;9.24;55.41;96042.66;10430003;27;96916;-70
2022/04/11 09:41:13;;;;;;;4.72;2.13;;;;;;;9.37;55.94;96032.72;10428065;27;96990;-70
2022/04/11 09:46:18;;;;;;;4.85;2.40;;;;;;;9.53;55.20;96042.56;10433065;27;97014;-71
2022/04/11 09:51:22;;;;;;;2.47;1.90;;;;;;;9.69;54.62;96036.69;10434878;27;96987;-70
2022/04/11 09:56:25;;;;;;;4.47;2.35;;;;;;;9.77;54.21;96034.16;10425943;27;96691;-70
2022/04/11 10:01:30;;;;;;;2.37;1.83;;;;;;;9.90;53.86;96027.75;10434305;27;96741;-71
2022/04/11 10:06:34;;;;;;;3.13;2.03;;;;;;;10.17;53.58;96009.41;10432954;27;98036;-71
2022/04/11 10:11:36;;;;;;;2.75;2.05;;;;;;;10.39;53.05;96002.91;10424590;27;96946;-71
2022/04/11 10:16:42;;;;;;;4.10;2.25;;;;;;;10.65;52.18;95996.03;10435512;27;98113;-71
2022/04/11 10:21:46;;;;;;;3.97;1.92;;;;;;;10.86;51.87;95998.28;10441811;27;96799;-71
2022/04/11 10:26:52;;;;;;;3.75;2.53;;;;;;;11.16;51.79;95991.72;10431843;27;96839;-71
2022/04/11 10:32:07;;;;;;;4.07;2.30;;;;;;;11.39;51.26;95996.41;10447540;27;97045;-71
2022/04/11 10:37:11;;;;;;;2.97;1.73;;;;;;;11.61;52.09;95987.16;10439853;27;99904;-71
2022/04/11 10:42:22;;;;;;;2.85;1.70;;;;;;;11.67;50.86;95978.66;10437234;27;97459;-71
2022/04/11 10:47:32;;;;;;;2.67;1.70;;;;;;;11.86;50.15;95969.69;10430311;27;96699;-71
2022/04/11 10:52:36;;;;;;;3.90;2.05;;;;;;;11.98;49.74;95957.09;10438885;27;97042;-68
2022/04/11 10:57:41;;;;;;;2.53;1.63;;;;;;;12.17;49.97;95961.19;10439522;27;99608;-68
2022/04/11 11:03:19;;;;;;;3.88;1.80;;;;;;;12.31;49.70;95957.91;10429899;27;96814;-68
2022/04/11 11:08:41;;;;;;;2.35;1.67;;;;;;;12.50;49.65;95960.16;10256655;28;96994;-68
2022/04/11 11:13:45;;;;;;;2.03;1.40;;;;;;;12.49;49.73;95957.72;10260656;28;96935;-68
2022/04/11 11:19:12;;;;;;;2.95;1.75;;;;;;;12.45;49.72;95954.59;10260311;28;97113;-68
2022/04/11 11:24:17;;;;;;;3.10;1.60;;;;;;;12.62;49.17;95944.09;10265997;28;97032;-68
2022/04/11 11:29:22;;;;;;;3.25;1.50;;;;;;;12.74;49.03;95940.13;10253428;28;96848;-68
2022/04/11 11:34:28;;;;;;;2.50;1.50;;;;;;;12.92;48.08;95932.06;10254513;28;96975;-68
2022/04/11 11:39:34;;;;;;;2.95;1.40;;;;;;;13.07;47.71;95920.91;10405065;27;97196;-68
2022/04/11 11:44:42;;;;;;;2.25;1.40;;;;;;;13.19;47.43;95925.56;10429115;27;96931;-69
2022/04/11 11:49:49;;;;;;;2.53;1.58;;;;;;;13.31;46.98;95925.16;10438590;27;96825;-68
2022/04/11 11:54:54;;;;;;;2.33;1.48;;;;;;;13.18;46.34;95913.44;10438233;27;97040;-68
2022/04/11 11:59:59;;;;;;;3.53;1.67;;;;;;;13.10;46.98;95920.53;10428790;27;97655;-69
2022/04/11 12:05:04;;;;;;;2.95;1.92;;;;;;;13.06;46.70;95909.56;10435513;27;96725;-68
2022/04/11 12:10:08;;;;;;;3.75;1.75;;;;;;;13.15;47.37;95903.31;10437289;27;96751;-69
2022/04/11 12:15:17;;;;;;;2.20;1.40;;;;;;;13.17;46.93;95905.72;10433558;27;96941;-68
2022/04/11 12:20:22;;;;;;;2.87;1.70;;;;;;;13.30;46.50;95894.69;10428380;27;96923;-68
2022/04/11 12:25:28;;;;;;;3.20;1.80;;;;;;;13.39;46.59;95888.41;10437263;27;96794;-68
2022/04/11 12:30:30;;;;;;;;;;;;;;;13.43;46.54;95893.13;10439085;27;99827;-68
2022/04/11 12:35:36;;;;;;;4.65;2.00;;;;;;;13.56;46.11;95878.63;10427745;27;97080;-68
2022/04/11 12:40:43;;;;;;;5.60;1.70;;;;;;;13.57;45.68;95881.06;10435838;27;96825;-68
2022/04/11 12:46:07;;;;;;;3.03;1.60;;;;;;;13.68;45.39;95860.66;10436407;27;96738;-68
2022/04/11 12:51:13;;;;;;;2.92;1.50;;;;;;;13.90;45.85;95854.56;10431980;27;96869;-68
2022/04/11 12:56:15;;;;;;;;;;;;;;;14.19;45.64;95853.78;10430217;27;97215;-68
2022/04/11 13:01:18;;;;;;;2.92;1.80;;;;;;;14.64;46.56;95845.94;10436410;27;96907;-69
2022/04/11 13:06:23;;;;;;;3.92;1.75;;;;;;;14.81;44.73;95840.47;10435559;27;96880;-69
2022/04/11 13:11:26;;;;;;;2.03;1.40;;;;;;;14.91;44.90;95841.00;10424720;27;97500;-69
2022/04/11 13:21:51;;;;;;;2.63;1.80;;;;;;;15.65;44.75;95821.53;10435569;27;96857;-69
2022/04/11 13:26:54;;;;;;;3.78;2.00;;;;;;;15.93;43.47;95818.94;10425918;27;96944;-69
2022/04/11 13:31:57;;;;;;;3.03;1.60;;;;;;;15.71;42.62;95818.16;10432914;27;97591;-69
2022/04/11 13:37:02;;;;;;;2.30;1.58;;;;;;;15.91;42.97;95810.38;10434184;27;97198;-69
2022/04/11 13:42:25;;;;;;;3.73;1.60;;;;;;;16.49;42.52;95799.59;10434333;27;96932;-69
2022/04/11 13:47:28;;;;;;;2.67;1.27;;;;;;;16.57;41.40;95794.19;10424465;27;101819;-69
2022/04/11 13:52:33;;;;;;;2.43;1.43;;;;;;;16.84;41.45;95786.38;10434797;27;96836;-69
2022/04/11 13:57:36;;;;;;;2.95;1.70;;;;;;;17.15;43.52;95782.41;10433825;27;99816;-69
2022/04/11 14:02:40;;;;;;;2.80;1.48;;;;;;;17.61;43.89;95770.28;10424375;27;96875;-69
2022/04/11 14:07:45;;;;;;;3.60;1.63;;;;;;;18.09;41.48;95765.59;10433321;27;96844;-69
2022/04/11 14:12:48;;;;;;;3.28;1.50;;;;;;;18.58;39.79;95750.19;10433638;27;97055;-70
2022/04/11 14:17:51;;;;;;;2.22;1.38;;;;;;;18.79;40.19;95748.25;10424026;27;96914;-69
2022/04/11 14:22:56;;;;;;;3.08;1.73;;;;;;;19.06;38.85;95738.38;10440357;27;97048;-69
2022/04/11 14:27:58;;;;;;;2.30;1.50;;;;;;;19.74;38.91;95734.19;10435079;27;96908;-70
2022/04/11 14:33:13;;;;;;;1.42;1.02;;;;;;;20.40;37.45;95729.28;10429631;27;101762;-70
2022/04/11 14:38:18;;;;;;;2.50;1.23;;;;;;;20.44;36.99;95717.97;10426180;27;97329;-70
2022/04/11 14:43:21;;;;;;;2.00;1.25;;;;;;;20.48;36.37;95718.38;10440430;27;96802;-69
2022/04/11 14:48:25;;;;;;;3.30;1.23;;;;;;;20.74;36.61;95712.75;10456960;27;97057;-70
2022/04/11 14:53:29;;;;;;;2.83;1.40;;;;;;;20.92;36.57;95698.59;10421754;27;102007;-70
2022/04/11 14:58:35;;;;;;;2.95;1.13;;;;;;;21.13;36.62;95697.28;10431898;27;96991;-70
2022/04/11 15:03:41;;;;;;;3.08;1.00;;;;;;;21.53;36.56;95687.06;10436638;27;96881;-70
2022/04/11 15:08:46;;;;;;;3.80;1.40;;;;;;;21.82;35.57;95682.72;10430440;27;96753;-70
2022/04/11 15:13:48;;;;;;;2.03;1.13;;;;;;;22.14;34.70;95677.81;10438723;27;96795;-70
2022/04/11 15:18:51;;;;;;;1.77;1.08;;;;;;;22.45;34.27;95678.44;10439228;27;97233;-70
2022/04/11 15:23:56;;;;;;;2.25;1.27;;;;;;;22.80;37.07;95669.53;10430727;27;96963;-70
2022/04/11 15:28:59;;;;;;;3.65;1.58;;;;;;;22.72;34.96;95661.94;10437649;27;96776;-70
2022/04/11 15:34:02;;;;;;;1.88;1.00;;;;;;;22.62;34.13;95663.34;10438170;27;96825;-70
2022/04/11 15:39:11;;;;;;;2.92;1.00;;;;;;;22.51;34.41;95656.25;10433951;27;96885;-70
2022/04/11 15:44:14;;;;;;;4.28;1.23;;;;;;;22.36;33.79;95658.56;10432898;27;97067;-70
2022/04/11 15:49:17;;;;;;;2.33;1.17;;;;;;;22.00;34.67;95663.16;10437962;27;97078;-70
2022/04/11 15:54:22;;;;;;;2.63;1.13;;;;;;;22.04;34.27;95661.66;10436048;27;96804;-70
2022/04/11 15:59:25;;;;;;;1.75;1.10;;;;;;;21.97;34.18;95661.78;10428775;27;96757;-70
2022/04/11 16:04:28;;;;;;;2.90;1.27;;;;;;;21.73;34.69;95663.66;10436992;27;96828;-70
2022/04/11 16:09:32;;;;;;;2.38;1.10;;;;;;;21.29;35.05;95658.66;10437696;27;96905;-70
2022/04/11 16:14:35;;;;;;;3.42;1.27;;;;;;;20.88;35.31;95664.78;10427657;27;99643;-70
2022/04/11 16:19:38;;;;;;;3.90;1.08;;;;;;;20.33;35.98;95673.66;10437180;27;96943;-70
2022/04/11 16:24:42;;;;;;;3.50;1.30;;;;;;;19.84;36.31;95670.13;10463467;27;96817;-70
2022/04/11 16:29:52;;;;;;;3.55;1.20;;;;;;;19.90;36.77;95667.38;10449352;27;96937;-70
2022/04/11 16:34:55;;;;;;;2.95;1.27;;;;;;;20.46;35.79;95677.97;10442664;27;99525;-71
2022/04/11 16:40:20;;;;;;;2.13;1.05;;;;;;;21.05;35.39;95676.38;10443535;27;97188;-70
2022/04/11 16:45:23;;;;;;;2.78;1.20;;;;;;;21.12;35.13;95682.41;10435023;27;98435;-70
2022/04/11 16:50:26;;;;;;;3.90;2.50;;;;;;;21.26;34.95;95679.53;10436461;27;96853;-70
2022/04/11 16:55:30;;;;;;;5.03;3.90;;;;;;;21.25;35.17;95662.78;10424843;27;100232;-70
2022/04/11 17:00:33;;;;;;;3.35;1.30;;;;;;;21.17;35.02;95672.94;10426041;27;98719;-70
2022/04/11 17:05:36;;;;;;;2.67;1.15;;;;;;;21.00;35.24;95673.59;10435385;27;98665;-70
2022/04/11 17:10:41;;;;;;;4.75;2.45;;;;;;;20.58;35.15;95676.16;10437546;27;96838;-70
2022/04/11 17:21:07;;;;;;;3.13;2.00;;;;;;;19.48;36.37;95688.34;10444593;27;97279;-70
2022/04/11 17:26:12;;;;;;;3.53;1.40;;;;;;;18.93;35.88;95693.44;10446207;27;97922;-71
2022/04/11 17:31:16;;;;;;;1.70;1.00;;;;;;;17.97;37.37;95700.34;10438437;27;97468;-70
2022/04/11 17:36:19;;;;;;;2.92;1.23;;;;;;;17.33;38.14;95710.53;10442301;27;97264;-69
2022/04/11 17:41:24;;;;;;;2.33;1.33;;;;;;;16.80;39.31;95704.19;10449590;27;97270;-69
2022/04/11 17:46:27;;;;;;;3.17;1.20;;;;;;;16.08;40.45;95715.25;10445745;27;96794;-70
2022/04/11 17:51:31;;;;;;;2.78;1.00;;;;;;;15.72;41.28;95724.16;10445659;27;98492;-70
2022/04/11 17:56:35;;;;;;;2.88;1.35;;;;;;;15.45;41.68;95721.31;10449538;27;97700;-70
2022/04/11 18:01:38;;;;;;;2.55;1.73;;;;;;;15.32;42.44;95730.72;10455083;27;96973;-70
2022/04/11 18:06:43;;;;;;;3.70;1.63;;;;;;;15.06;43.23;95725.22;10439553;27;96816;-70
2022/04/11 18:11:47;;;;;;;3.73;1.70;;;;;;;14.79;43.65;95732.06;10456298;27;96906;-69
2022/04/11 18:16:51;;;;;;;2.17;1.50;;;;;;;14.31;44.79;95741.19;10443646;27;97343;-70
2022/04/11 18:21:54;;;;;;;3.63;1.40;;;;;;;14.13;46.00;95743.38;10445510;27;96967;-69
2022/04/11 18:26:58;;;;;;;2.45;1.42;;;;;;;13.93;47.40;95743.09;10442069;27;97183;-70
2022/04/11 18:32:02;;;;;;;2.00;1.23;;;;;;;13.44;48.58;95749.63;10453503;27;97181;-66
2022/04/11 18:37:05;;;;;;;3.38;1.27;;;;;;;13.11;51.21;95749.91;10442603;27;96896;-69
2022/04/11 18:42:10;;;;;;;6.93;3.20;;;;;;;12.87;51.56;95751.69;10452679;27;98522;-69
2022/04/11 18:47:13;;;;;;;7.20;2.70;;;;;;;12.85;51.64;95753.63;10449769;27;97741;-69
2022/04/11 18:52:16;;;;;;;8.63;4.28;;;;;;;12.76;51.70;95767.78;10447314;27;98019;-69
2022/04/11 18:57:20;;;;;;;14.18;8.35;;;;;;;12.77;52.47;95764.19;10447142;27;97261;-64
2022/04/11 19:02:23;;;;;;;9.23;6.00;;;;;;;12.71;52.46;95762.25;10449451;27;96974;-69
2022/04/11 19:07:28;;;;;;;9.30;4.97;;;;;;;12.73;52.57;95773.38;10441447;27;96820;-69
2022/04/11 19:12:32;;;;;;;8.63;5.53;;;;;;;12.50;52.64;95791.69;10454825;27;98103;-68
2022/04/11 19:17:35;;;;;;;16.13;9.77;;;;;;;12.25;53.17;95786.53;10451363;27;97313;-69
2022/04/11 19:22:41;;;;;;;20.70;13.88;;;;;;;11.73;54.69;95794.84;10451740;27;98467;-69
2022/04/11 19:27:47;;;;;;;7.00;5.57;;;;;;;11.60;55.35;95799.75;10433964;27;97002;-68
2022/04/11 19:32:50;;;;;;;8.37;4.60;;;;;;;11.65;54.97;95802.72;10450396;27;97082;-68
2022/04/11 19:37:53;;;;;;;8.80;4.35;;;;;;;11.34;55.99;95803.34;10443812;27;97019;-69
2022/04/11 19:42:57;;;;;;;8.20;5.05;;;;;;;11.25;56.08;95812.16;10445098;27;97999;-69
2022/04/11 19:53:21;;;;;;;4.93;3.60;;;;;;;11.21;55.11;95802.97;10440006;27;97686;-69
2022/04/11 19:58:26;;;;;;;4.05;2.50;;;;;;;11.33;54.22;95807.78;10439413;27;97700;-69
2022/04/11 20:03:29;;;;;;;7.57;2.50;;;;;;;11.48;53.80;95804.50;10443117;27;98959;-69
2022/04/11 20:08:32;;;;;;;5.10;1.90;;;;;;;11.49;52.15;95796.50;10443598;27;96933;-69
2022/04/11 20:13:38;;;;;;;4.68;2.95;;;;;;;11.25;53.96;95799.91;10455762;27;97317;-69
2022/04/11 20:18:41;;;;;;;5.57;3.28;;;;;;;10.85;54.59;95798.88;10442915;27;97330;-69
2022/04/11 20:23:44;;;;;;;5.63;2.83;;;;;;;10.82;53.53;95788.72;10454004;27;96783;-69
2022/04/11 20:28:48;;;;;;;4.82;2.45;;;;;;;10.77;53.50;95786.63;10450104;27;96800;-69
2022/04/11 20:33:52;;;;;;;4.07;2.67;;;;;;;10.67;53.35;95792.94;10439961;27;101194;-69
2022/04/11 20:38:55;;;;;;;3.17;1.92;;;;;;;10.60;53.84;95790.16;10445284;27;98187;-69
2022/04/11 20:44:01;;;;;;;4.10;2.10;;;;;;;10.55;53.63;95785.41;10449731;27;97992;-69
2022/04/11 20:49:05;;;;;;;3.45;1.67;;;;;;;10.48;53.77;95792.25;10433780;27;97707;-69
2022/04/11 20:55:38;;;;;;;3.95;1.85;;;;;;;10.43;53.84;95786.66;10433978;27;99961;-69
2022/04/11 20:59:32;;;;;;;4.97;2.40;;;;;;;10.18;54.56;95789.19;10422823;27;100555;-69
2022/04/11 21:04:36;;;;;;;3.87;2.47;;;;;;;10.00;54.48;95788.44;10448326;27;97233;-69
2022/04/11 21:09:40;;;;;;;7.13;2.77;;;;;;;9.38;56.49;95794.50;10434966;27;97368;-69
2022/04/11 21:14:44;;;;;;;4.47;2.63;;;;;;;9.22;57.14;95794.38;10443015;27;97059;-69
2022/04/11 21:19:47;;;;;;;7.23;3.23;;;;;;;8.68;58.54;95789.97;10439244;27;97032;-69
2022/04/11 21:24:50;;;;;;;6.50;2.50;;;;;;;8.55;59.11;95802.53;10444325;27;97617;-69
2022/04/11 21:29:54;;;;;;;5.35;3.15;;;;;;;8.68;58.43;95795.19;10428590;27;97988;-69
2022/04/11 21:34:57;;;;;;;5.00;2.73;;;;;;;8.58;58.98;95802.25;10451801;27;97649;-70
2022/04/11 21:40:00;;;;;;;5.80;3.22;;;;;;;8.40;59.99;95809.22;10442582;27;98255;-73
2022/04/11 21:45:05;;;;;;;4.90;2.63;;;;;;;8.16;60.86;95803.53;10442684;27;97163;-68
2022/04/11 21:50:08;;;;;;;;;;;;;;;8.08;60.35;95802.63;10437014;27;96882;-69
2022/04/11 21:55:11;;;;;;;5.07;2.97;;;;;;;8.28;59.84;95811.97;10426705;27;97045;-70
2022/04/11 22:00:18;;;;;;;5.63;2.60;;;;;;;8.18;60.23;95800.78;10441283;27;96853;-69
2022/04/11 22:05:21;;;;;;;8.30;3.00;;;;;;;8.23;60.66;95797.78;10451880;27;100071;-69
2022/04/11 22:10:24;;;;;;;5.20;2.50;;;;;;;8.28;60.22;95805.97;10421449;27;99904;-69
2022/04/11 22:15:28;;;;;;;4.05;2.20;;;;;;;8.33;60.19;95796.75;10424692;27;96788;-69
2022/04/11 22:20:31;;;;;;;4.27;2.10;;;;;;;8.43;60.13;95796.72;10438044;27;96927;-69
2022/04/11 22:25:34;;;;;;;3.67;2.08;;;;;;;8.55;59.57;95797.31;10419649;27;96860;-69
2022/04/11 22:30:38;;;;;;;2.80;1.92;;;;;;;8.64;59.52;95791.25;10416339;27;96925;-69
2022/04/11 22:35:41;;;;;;;5.13;2.20;;;;;;;8.54;59.84;95800.91;10418936;27;96899;-69
2022/04/11 22:40:44;;;;;;;4.10;2.08;;;;;;;8.45;59.99;95796.56;10420252;27;99841;-69
2022/04/11 22:45:48;;;;;;;5.43;2.17;;;;;;;8.41;60.59;95800.41;10416561;27;96766;-69
2022/04/11 22:50:51;;;;;;;3.30;2.00;;;;;;;8.39;61.01;95812.75;10440262;27;96893;-69
2022/04/11 22:55:54;;;;;;;4.35;2.42;;;;;;;8.32;60.95;95799.50;10420617;27;98014;-69
2022/04/11 23:00:58;;;;;;;4.88;2.33;;;;;;;8.11;61.93;95799.72;10425069;27;102564;-68
2022/04/11 23:06:02;;;;;;;5.60;2.30;;;;;;;7.88;62.62;95794.06;10441074;27;100231;-69
2022/04/11 23:11:04;;;;;;;4.95;2.40;;;;;;;7.87;62.57;95797.63;10444270;27;96806;-69
2022/04/11 23:16:09;;;;;;;4.57;1.83;;;;;;;8.01;61.60;95793.75;10416984;27;96714;-69
2022/04/11 23:21:12;;;;;;;8.23;2.77;;;;;;;8.23;61.44;95793.38;10430588;27;97201;-69
2022/04/11 23:26:16;;;;;;;4.70;2.00;;;;;;;8.34;61.20;95792.38;10447925;27;100595;-69
2022/04/11 23:31:21;;;;;;;5.93;1.92;;;;;;;8.34;61.66;95790.59;10441359;27;96921;-69
2022/04/11 23:36:24;;;;;;;3.63;1.97;;;;;;;8.35;61.68;95794.00;10436135;27;97044;-69
2022/04/11 23:41:28;;;;;;;3.50;2.00;;;;;;;8.29;62.02;95792.81;10449088;27;97097;-69
2022/04/11 23:46:32;;;;;;;5.77;1.77;;;;;;;8.37;62.19;95791.28;10438517;27;96890;-69
2022/04/11 23:51:36;;;;;;;5.23;2.27;;;;;;;8.48;61.85;95785.84;10438908;27;97109;-69
2022/04/11 23:56:38;;;;;;;2.75;1.65;;;;;;;8.51;61.50;95783.78;10424178;27;97030;-68
